createdAt,value
2023-03-28T00:00:27.083Z,97706.27
2023-03-28T00:02:56.118Z,97706.02
2023-03-28T00:05:24.912Z,97700.05
2023-03-28T00:07:54.080Z,97698.95
2023-03-28T00:10:22.972Z,97694.66
2023-03-28T00:12:52.574Z,97692.64
2023-03-28T00:15:21.091Z,97694.98
2023-03-28T00:17:52.663Z,97691.42
2023-03-28T00:20:21.613Z,97690.84
2023-03-28T00:22:52.552Z,97682.58
2023-03-28T00:25:21.755Z,97681.98
2023-03-28T00:27:50.143Z,97681.71
2023-03-28T00:30:18.925Z,97683.14
2023-03-28T00:32:47.599Z,97678.36
2023-03-28T00:35:16.091Z,97676.45
2023-03-28T00:37:46.153Z,97677.93
2023-03-28T00:40:14.919Z,97672.66
2023-03-28T00:42:43.901Z,97670.36
2023-03-28T00:45:14.026Z,97668.94
2023-03-28T00:47:47.555Z,97667.48
2023-03-28T00:50:28.098Z,97670.19
2023-03-28T00:53:04.584Z,97667.48
2023-03-28T00:55:49.025Z,97661.55
2023-03-28T00:58:23.403Z,97661.57
2023-03-28T01:00:55.101Z,97656.86
2023-03-28T01:03:29.344Z,97663.64
2023-03-28T01:05:59.575Z,97655.06
2023-03-28T01:08:38.383Z,97645.00
2023-03-28T01:11:07.361Z,97636.56
2023-03-28T01:13:39.158Z,97633.02
2023-03-28T01:16:08.823Z,97633.45
2023-03-28T01:18:37.522Z,97628.85
2023-03-28T01:21:09.178Z,97624.73
2023-03-28T01:24:11.754Z,97621.69
2023-03-28T01:26:49.785Z,97620.69
2023-03-28T01:29:29.316Z,97626.77
2023-03-28T01:32:17.052Z,97627.17
2023-03-28T01:35:16.016Z,97621.23
2023-03-28T01:37:56.823Z,97618.50
2023-03-28T01:40:25.918Z,97623.42
2023-03-28T01:43:22.678Z,97622.33
2023-03-28T01:46:00.527Z,97623.17
2023-03-28T01:49:20.121Z,97620.22
2023-03-28T01:51:59.188Z,97642.27
2023-03-28T01:54:43.439Z,97642.93
2023-03-28T01:57:19.036Z,97650.29
2023-03-28T01:59:51.467Z,97646.77
2023-03-28T02:02:55.110Z,97651.51
2023-03-28T02:05:28.325Z,97649.70
2023-03-28T02:07:58.908Z,97649.07
2023-03-28T02:10:37.663Z,97644.33
2023-03-28T02:13:34.221Z,97641.06
2023-03-28T02:16:13.846Z,97640.53
2023-03-28T02:19:08.930Z,97639.09
2023-03-28T02:22:07.624Z,97632.28
2023-03-28T02:24:56.792Z,97628.02
2023-03-28T02:27:40.332Z,97625.23
2023-03-28T02:30:28.689Z,97622.27
2023-03-28T02:33:01.618Z,97616.70
2023-03-28T02:35:54.903Z,97615.08
2023-03-28T02:38:36.436Z,97609.45
2023-03-28T02:41:20.271Z,97613.67
2023-03-28T02:44:40.469Z,97609.20
2023-03-28T02:47:47.292Z,97603.61
2023-03-28T02:50:19.735Z,97600.34
2023-03-28T02:52:54.168Z,97597.83
2023-03-28T02:55:28.795Z,97594.34
2023-03-28T02:58:08.379Z,97589.85
2023-03-28T03:00:39.740Z,97592.83
2023-03-28T03:03:11.961Z,97595.83
2023-03-28T03:05:41.774Z,97592.29
2023-03-28T03:08:12.094Z,97592.05
2023-03-28T03:10:50.521Z,97592.10
2023-03-28T03:13:21.044Z,97588.58
2023-03-28T03:15:50.346Z,97592.70
2023-03-28T03:18:24.986Z,97593.78
2023-03-28T03:20:53.763Z,97592.98
2023-03-28T03:23:27.888Z,97595.42
2023-03-28T03:25:58.788Z,97592.86
2023-03-28T03:28:33.658Z,97589.66
2023-03-28T03:31:06.697Z,97580.41
2023-03-28T03:33:47.727Z,97572.11
2023-03-28T03:36:19.177Z,97569.09
2023-03-28T03:38:48.073Z,97567.46
2023-03-28T03:41:21.162Z,97566.02
2023-03-28T03:43:52.530Z,97568.54
2023-03-28T03:46:21.670Z,97569.92
2023-03-28T03:48:51.531Z,97571.55
2023-03-28T03:51:20.629Z,97572.20
2023-03-28T03:53:51.163Z,97572.53
2023-03-28T03:56:23.022Z,97575.39
2023-03-28T03:58:57.763Z,97568.56
2023-03-28T04:01:35.266Z,97570.14
2023-03-28T04:04:30.662Z,97562.80
2023-03-28T04:07:14.626Z,97561.91
2023-03-28T04:09:43.506Z,97563.41
2023-03-28T04:12:11.993Z,97560.86
2023-03-28T04:14:58.925Z,97557.73
2023-03-28T04:17:35.530Z,97553.64
2023-03-28T04:20:14.303Z,97562.42
2023-03-28T04:23:06.261Z,97560.72
2023-03-28T04:25:35.545Z,97555.30
2023-03-28T04:28:17.158Z,97558.27
2023-03-28T04:31:00.328Z,97553.98
2023-03-28T04:33:34.897Z,97555.55
2023-03-28T04:36:06.118Z,97553.56
2023-03-28T04:38:37.603Z,97553.30
2023-03-28T04:41:26.594Z,97560.17
2023-03-28T04:44:04.168Z,97554.92
2023-03-28T04:46:37.154Z,97550.65
2023-03-28T04:49:11.579Z,97535.02
2023-03-28T04:51:43.242Z,97528.67
2023-03-28T04:54:11.926Z,97510.18
2023-03-28T04:56:49.711Z,97511.73
2023-03-28T04:59:23.846Z,97481.63
2023-03-28T05:01:53.173Z,97476.27
2023-03-28T05:04:40.885Z,97476.48
2023-03-28T05:07:10.085Z,97466.95
2023-03-28T05:09:39.592Z,97458.04
2023-03-28T05:12:12.885Z,97447.20
2023-03-28T05:15:08.065Z,97434.00
2023-03-28T05:17:56.425Z,97434.92
2023-03-28T05:20:35.074Z,97431.79
2023-03-28T05:23:04.062Z,97420.29
2023-03-28T05:25:32.753Z,97412.08
2023-03-28T05:29:38.109Z,97402.86
2023-03-28T05:32:10.140Z,97395.74
2023-03-28T05:34:37.534Z,97395.09
2023-03-28T05:37:04.594Z,97391.93
2023-03-28T05:39:45.591Z,97386.27
2023-03-28T05:42:13.036Z,97377.66
2023-03-28T05:44:41.312Z,97379.08
2023-03-28T05:47:21.667Z,97377.45
2023-03-28T05:49:48.615Z,97380.05
2023-03-28T05:52:16.287Z,97379.95
2023-03-28T05:54:50.125Z,97380.13
2023-03-28T05:57:19.270Z,97383.44
2023-03-28T05:59:46.541Z,97383.95
2023-03-28T06:02:15.688Z,97387.70
2023-03-28T06:04:44.507Z,97387.02
2023-03-28T06:07:13.942Z,97385.92
2023-03-28T06:09:41.620Z,97383.83
2023-03-28T06:12:09.880Z,97382.48
2023-03-28T06:14:41.640Z,97381.64
2023-03-28T06:17:12.208Z,97386.44
2023-03-28T06:19:46.835Z,97381.64
2023-03-28T06:22:13.948Z,97383.80
2023-03-28T06:24:45.524Z,97384.75
2023-03-28T06:27:13.678Z,97380.95
2023-03-28T06:29:41.856Z,97378.63
2023-03-28T06:32:09.625Z,97380.28
2023-03-28T06:34:36.808Z,97370.48
2023-03-28T06:37:04.176Z,97373.09
2023-03-28T06:39:43.370Z,97369.63
2023-03-28T06:42:11.034Z,97374.95
2023-03-28T06:44:50.781Z,97370.30
2023-03-28T06:47:32.682Z,97367.29
2023-03-28T06:49:59.728Z,97365.20
2023-03-28T06:52:38.250Z,97368.05
2023-03-28T06:55:07.966Z,97365.23
2023-03-28T06:57:35.235Z,97367.13
2023-03-28T07:00:11.489Z,97368.10
2023-03-28T07:03:07.922Z,97361.96
2023-03-28T07:05:41.935Z,97360.04
2023-03-28T07:08:10.018Z,97363.61
2023-03-28T07:10:37.767Z,97365.66
2023-03-28T07:13:05.133Z,97364.52
2023-03-28T07:15:32.797Z,97369.36
2023-03-28T07:18:00.134Z,97372.38
2023-03-28T07:20:31.202Z,97373.95
2023-03-28T07:23:00.110Z,97378.27
2023-03-28T07:25:28.063Z,97380.05
2023-03-28T07:27:56.547Z,97384.98
2023-03-28T07:30:24.954Z,97385.92
2023-03-28T07:33:01.668Z,97387.08
2023-03-28T07:35:40.152Z,97387.88
2023-03-28T07:38:10.142Z,97384.69
2023-03-28T07:40:48.868Z,97383.13
2023-03-28T07:43:16.122Z,97386.63
2023-03-28T07:45:45.872Z,97380.92
2023-03-28T07:48:13.403Z,97382.84
2023-03-28T07:50:42.307Z,97379.23
2023-03-28T07:53:11.796Z,97383.36
2023-03-28T07:55:54.244Z,97379.60
2023-03-28T07:58:32.835Z,97375.92
2023-03-28T08:01:06.140Z,97370.36
2023-03-28T08:03:42.337Z,97362.25
2023-03-28T08:06:20.668Z,97365.17
2023-03-28T08:08:56.864Z,97356.33
2023-03-28T08:11:38.566Z,97350.66
2023-03-28T08:14:08.783Z,97350.48
2023-03-28T08:16:37.880Z,97348.29
2023-03-28T08:19:11.416Z,97346.65
2023-03-28T08:22:01.984Z,97339.10
2023-03-28T08:24:36.216Z,97338.50
2023-03-28T08:27:20.662Z,97344.02
2023-03-28T08:29:51.298Z,97343.06
2023-03-28T08:32:18.959Z,97342.70
2023-03-28T08:34:48.975Z,97340.73
2023-03-28T08:37:21.250Z,97340.86
2023-03-28T08:39:48.721Z,97341.25
2023-03-28T08:42:44.317Z,97344.88
2023-03-28T08:45:17.522Z,97345.19
2023-03-28T08:48:35.469Z,97344.80
2023-03-28T08:51:25.763Z,97346.27
2023-03-28T08:54:22.820Z,97346.67
2023-03-28T08:56:55.200Z,97345.85
2023-03-28T08:59:39.244Z,97344.95
2023-03-28T09:02:35.880Z,97348.59
2023-03-28T09:08:01.017Z,97347.77
2023-03-28T09:10:49.870Z,97347.98
2023-03-28T09:13:25.222Z,97347.32
2023-03-28T09:16:26.650Z,97344.64
2023-03-28T09:19:37.022Z,97341.68
2023-03-28T09:22:34.251Z,97336.80
2023-03-28T09:25:29.207Z,97336.77
2023-03-28T09:28:23.902Z,97338.64
2023-03-28T09:30:51.462Z,97338.33
2023-03-28T09:33:22.353Z,97340.15
2023-03-28T09:35:49.900Z,97333.09
2023-03-28T09:38:23.795Z,97329.42
2023-03-28T09:40:51.754Z,97330.77
2023-03-28T09:43:26.271Z,97331.34
2023-03-28T09:46:08.113Z,97330.23
2023-03-28T09:48:38.840Z,97327.91
2023-03-28T09:51:14.351Z,97331.43
2023-03-28T09:53:42.734Z,97330.04
2023-03-28T09:56:22.796Z,97331.66
2023-03-28T09:58:54.960Z,97331.34
2023-03-28T10:01:49.314Z,97331.01
2023-03-28T10:04:37.447Z,97331.02
2023-03-28T10:07:45.203Z,97325.98
2023-03-28T10:10:22.617Z,97327.67
2023-03-28T10:13:01.747Z,97322.91
2023-03-28T10:15:44.737Z,97326.83
2023-03-28T10:18:31.276Z,97327.80
2023-03-28T10:21:23.705Z,97327.39
2023-03-28T10:24:02.020Z,97326.79
2023-03-28T10:26:31.220Z,97322.52
2023-03-28T10:29:02.334Z,97324.55
2023-03-28T10:31:32.347Z,97325.34
2023-03-28T10:34:25.383Z,97325.00
2023-03-28T10:37:01.399Z,97323.71
2023-03-28T10:39:41.682Z,97319.95
2023-03-28T10:42:11.903Z,97321.04
2023-03-28T10:45:00.827Z,97321.00
2023-03-28T10:47:30.396Z,97322.31
2023-03-28T10:50:04.689Z,97322.17
2023-03-28T10:52:59.694Z,97324.06
2023-03-28T10:55:40.155Z,97317.93
2023-03-28T10:59:07.112Z,97317.75
2023-03-28T11:01:43.850Z,97315.23
2023-03-28T11:04:49.749Z,97311.17
2023-03-28T11:07:42.875Z,97311.86
2023-03-28T11:10:36.386Z,97313.36
2023-03-28T11:13:45.017Z,97310.16
2023-03-28T11:16:27.560Z,97306.50
2023-03-28T11:19:44.954Z,97309.84
2023-03-28T11:22:37.708Z,97311.14
2023-03-28T11:25:19.198Z,97312.63
2023-03-28T11:28:32.326Z,97316.60
2023-03-28T11:31:05.856Z,97324.25
2023-03-28T11:34:06.290Z,97325.70
2023-03-28T11:36:38.382Z,97337.08
2023-03-28T11:39:31.594Z,97350.75
2023-03-28T11:42:02.136Z,97359.45
2023-03-28T11:45:05.323Z,97358.39
2023-03-28T11:48:05.061Z,97365.65
2023-03-28T11:51:10.728Z,97378.35
2023-03-28T11:54:24.436Z,97383.20
2023-03-28T11:56:56.224Z,97388.40
2023-03-28T11:59:36.635Z,97396.41
2023-03-28T12:02:30.975Z,97400.23
2023-03-28T12:05:32.425Z,97403.42
2023-03-28T12:08:17.183Z,97404.08
2023-03-28T12:10:46.310Z,97406.93
2023-03-28T12:13:51.045Z,97411.30
2023-03-28T12:16:31.905Z,97416.73
2023-03-28T12:19:03.226Z,97413.79
2023-03-28T12:21:55.015Z,97419.42
2023-03-28T12:24:37.583Z,97422.42
2023-03-28T12:27:25.011Z,97424.38
2023-03-28T12:30:22.463Z,97430.27
2023-03-28T12:33:26.424Z,97428.52
2023-03-28T12:36:18.145Z,97427.59
2023-03-28T12:39:00.216Z,97425.73
2023-03-28T12:41:35.842Z,97427.43
2023-03-28T12:44:10.611Z,97427.25
2023-03-28T12:46:45.736Z,97428.80
2023-03-28T12:49:24.554Z,97441.49
2023-03-28T12:51:53.101Z,97442.63
2023-03-28T12:54:26.228Z,97443.56
2023-03-28T12:57:04.326Z,97451.54
2023-03-28T12:59:43.787Z,97452.16
2023-03-28T13:02:28.669Z,97454.77
2023-03-28T13:04:59.895Z,97455.32
2023-03-28T13:07:57.253Z,97457.08
2023-03-28T13:10:42.647Z,97461.33
2023-03-28T13:13:25.247Z,97464.51
2023-03-28T13:16:01.041Z,97468.09
2023-03-28T13:18:34.429Z,97471.80
2023-03-28T13:21:04.599Z,97468.25
2023-03-28T13:23:34.263Z,97475.70
2023-03-28T13:26:03.377Z,97478.12
2023-03-28T13:28:37.716Z,97481.19
2023-03-28T13:31:10.726Z,97487.46
2023-03-28T13:33:44.926Z,97489.01
2023-03-28T13:36:12.880Z,97487.36
2023-03-28T13:38:45.849Z,97486.27
2023-03-28T13:41:48.397Z,97489.08
2023-03-28T13:44:29.176Z,97497.84
2023-03-28T13:46:56.101Z,97497.17
2023-03-28T13:49:30.233Z,97502.00
2023-03-28T13:52:04.349Z,97507.53
2023-03-28T13:54:31.706Z,97514.21
2023-03-28T13:57:06.677Z,97519.55
2023-03-28T13:59:37.189Z,97520.81
2023-03-28T14:02:17.816Z,97523.27
2023-03-28T14:04:53.414Z,97529.91
2023-03-28T14:07:27.751Z,97529.92
2023-03-28T14:09:56.217Z,97538.79
2023-03-28T14:12:27.533Z,97534.52
2023-03-28T14:14:59.511Z,97538.64
2023-03-28T14:17:28.534Z,97539.13
2023-03-28T14:19:58.073Z,97540.98
2023-03-28T14:22:57.448Z,97542.91
2023-03-28T14:25:28.078Z,97541.11
2023-03-28T14:27:55.772Z,97543.56
2023-03-28T14:30:31.503Z,97547.45
2023-03-28T14:33:07.353Z,97547.23
2023-03-28T14:35:35.160Z,97549.98
2023-03-28T14:38:06.810Z,97549.27
2023-03-28T14:40:35.808Z,97553.10
2023-03-28T14:43:16.746Z,97561.40
2023-03-28T14:45:51.296Z,97565.38
2023-03-28T14:48:24.477Z,97571.88
2023-03-28T14:50:53.581Z,97576.91
2023-03-28T14:53:26.684Z,97584.83
2023-03-28T14:55:54.948Z,97592.90
2023-03-28T14:58:22.513Z,97594.77
2023-03-28T15:00:55.339Z,97602.34
2023-03-28T15:03:31.697Z,97612.50
2023-03-28T15:06:00.490Z,97615.50
2023-03-28T15:08:31.217Z,97615.12
2023-03-28T15:11:02.882Z,97619.92
2023-03-28T15:13:35.750Z,97631.64
2023-03-28T15:16:04.963Z,97629.33
2023-03-28T15:18:37.958Z,97636.67
2023-03-28T15:21:06.729Z,97638.07
2023-03-28T15:23:38.144Z,97643.35
2023-03-28T15:26:12.694Z,97650.15
2023-03-28T15:28:39.951Z,97660.64
2023-03-28T15:31:10.782Z,97657.67
2023-03-28T15:33:37.830Z,97667.33
2023-03-28T15:36:25.069Z,97670.48
2023-03-28T15:39:23.741Z,97671.22
2023-03-28T15:42:11.171Z,97681.98
2023-03-28T15:44:39.417Z,97693.05
2023-03-28T15:47:12.514Z,97697.04
2023-03-28T15:49:39.600Z,97698.86
2023-03-28T15:52:14.118Z,97703.89
2023-03-28T15:54:43.193Z,97708.47
2023-03-28T15:57:11.761Z,97715.05
2023-03-28T15:59:40.899Z,97707.41
2023-03-28T16:02:23.523Z,97713.80
2023-03-28T16:04:57.118Z,97717.07
2023-03-28T16:07:24.388Z,97729.98
2023-03-28T16:09:52.068Z,97742.18
2023-03-28T16:12:19.291Z,97744.89
2023-03-28T16:14:52.249Z,97745.29
2023-03-28T16:17:44.379Z,97757.78
2023-03-28T16:20:19.362Z,97760.05
2023-03-28T16:22:48.358Z,97768.66
2023-03-28T16:25:15.405Z,97765.68
2023-03-28T16:27:42.562Z,97776.11
2023-03-28T16:30:32.842Z,97785.00
2023-03-28T16:33:00.646Z,97787.83
2023-03-28T16:35:28.399Z,97800.34
2023-03-28T16:37:59.520Z,97800.75
2023-03-28T16:40:27.213Z,97804.11
2023-03-28T16:42:54.636Z,97808.64
2023-03-28T16:45:23.326Z,97814.53
2023-03-28T16:47:50.696Z,97818.89
2023-03-28T16:50:17.727Z,97824.80
2023-03-28T16:52:44.982Z,97822.27
2023-03-28T16:55:14.387Z,97828.25
2023-03-28T16:57:41.567Z,97831.03
2023-03-28T17:00:17.187Z,97836.95
2023-03-28T17:02:46.479Z,97843.11
2023-03-28T17:05:14.466Z,97848.05
2023-03-28T17:07:41.721Z,97848.33
2023-03-28T17:10:10.448Z,97851.73
2023-03-28T17:12:37.769Z,97860.20
2023-03-28T17:15:06.163Z,97857.40
2023-03-28T17:17:33.520Z,97863.05
2023-03-28T17:20:00.866Z,97873.67
2023-03-28T17:22:28.106Z,97873.95
2023-03-28T17:24:56.695Z,97881.21
2023-03-28T17:27:27.763Z,97881.10
2023-03-28T17:29:55.217Z,97887.11
2023-03-28T17:32:22.458Z,97896.44
2023-03-28T17:34:49.597Z,97901.80
2023-03-28T17:37:20.027Z,97907.80
2023-03-28T17:39:47.597Z,97914.13
2023-03-28T17:42:14.741Z,97913.48
2023-03-28T17:46:58.463Z,97929.70
2023-03-28T17:49:27.285Z,97928.12
2023-03-28T17:51:57.453Z,97922.18
2023-03-28T17:54:26.524Z,97926.60
2023-03-28T17:56:54.919Z,97924.85
2023-03-28T17:59:23.888Z,97925.18
2023-03-28T18:01:52.315Z,97921.06
2023-03-28T18:04:21.456Z,97932.86
2023-03-28T18:07:17.403Z,97934.11
2023-03-28T18:09:49.455Z,97943.13
2023-03-28T18:12:19.067Z,97941.52
2023-03-28T18:14:48.784Z,97938.06
2023-03-28T18:17:25.874Z,97949.11
2023-03-28T18:19:54.448Z,97949.50
2023-03-28T18:22:23.139Z,97953.02
2023-03-28T18:24:53.873Z,97963.61
2023-03-28T18:27:22.562Z,97967.59
2023-03-28T18:29:51.867Z,97976.70
2023-03-28T18:32:20.453Z,97983.09
2023-03-28T18:34:48.836Z,97985.02
2023-03-28T18:37:17.320Z,97984.46
2023-03-28T18:39:45.807Z,97984.33
2023-03-28T18:42:14.290Z,97983.97
2023-03-28T18:44:43.386Z,97989.69
2023-03-28T18:47:13.815Z,97994.88
2023-03-28T18:49:42.507Z,97998.92
2023-03-28T18:52:10.990Z,98002.33
2023-03-28T18:54:46.226Z,97998.34
2023-03-28T18:57:15.264Z,97991.45
2023-03-28T18:59:47.195Z,98009.59
2023-03-28T19:02:17.661Z,98008.85
2023-03-28T19:04:47.332Z,98012.59
2023-03-28T19:07:18.050Z,98012.15
2023-03-28T19:09:46.756Z,98018.26
2023-03-28T19:12:15.653Z,98018.66
2023-03-28T19:14:46.283Z,98019.74
2023-03-28T19:17:14.875Z,98018.15
2023-03-28T19:19:43.353Z,98027.14
2023-03-28T19:22:11.837Z,98029.02
2023-03-28T19:24:40.320Z,98027.11
2023-03-28T19:27:08.629Z,98041.58
2023-03-28T19:29:38.519Z,98045.09
2023-03-28T19:32:09.768Z,98044.70
2023-03-28T19:34:38.874Z,98047.05
2023-03-28T19:37:07.347Z,98046.63
2023-03-28T19:39:36.137Z,98044.01
2023-03-28T19:42:05.448Z,98036.76
2023-03-28T19:44:35.256Z,98030.52
2023-03-28T19:47:03.735Z,98036.36
2023-03-28T19:49:39.500Z,98025.55
2023-03-28T19:52:10.130Z,98025.96
2023-03-28T19:54:38.644Z,98038.59
2023-03-28T19:57:08.415Z,98042.34
2023-03-28T19:59:37.414Z,98046.89
2023-03-28T20:02:06.454Z,98051.88
2023-03-28T20:04:35.428Z,98048.92
2023-03-28T20:07:03.893Z,98048.02
2023-03-28T20:09:36.571Z,98051.17
2023-03-28T20:12:07.119Z,98065.48
2023-03-28T20:14:35.798Z,98063.70
2023-03-28T20:17:04.168Z,98068.02
2023-03-28T20:19:32.858Z,98071.97
2023-03-28T20:22:01.258Z,98078.40
2023-03-28T20:24:30.037Z,98084.51
2023-03-28T20:26:58.716Z,98095.85
2023-03-28T20:29:32.626Z,98090.42
2023-03-28T20:32:01.458Z,98088.91
2023-03-28T20:34:31.032Z,98092.67
2023-03-28T20:37:01.350Z,98098.20
2023-03-28T20:39:34.265Z,98105.27
2023-03-28T20:42:03.532Z,98106.55
2023-03-28T20:44:38.528Z,98113.78
2023-03-28T20:47:07.944Z,98118.34
2023-03-28T20:49:38.561Z,98126.27
2023-03-28T20:52:08.933Z,98127.71
2023-03-28T20:54:37.835Z,98132.06
2023-03-28T20:57:26.220Z,98138.52
2023-03-28T20:59:58.856Z,98131.15
2023-03-28T21:02:33.585Z,98139.89
2023-03-28T21:05:04.584Z,98138.30
2023-03-28T21:07:35.268Z,98143.15
2023-03-28T21:10:04.284Z,98148.42
2023-03-28T21:12:33.045Z,98146.66
2023-03-28T21:15:03.984Z,98157.92
2023-03-28T21:17:34.669Z,98155.77
2023-03-28T21:20:07.122Z,98156.11
2023-03-28T21:22:38.339Z,98153.63
2023-03-28T21:25:08.089Z,98156.03
2023-03-28T21:27:42.402Z,98159.04
2023-03-28T21:30:13.618Z,98167.48
2023-03-28T21:33:02.175Z,98171.00
2023-03-28T21:35:32.247Z,98175.41
2023-03-28T21:38:00.773Z,98173.98
2023-03-28T21:40:29.150Z,98179.51
2023-03-28T21:42:59.377Z,98180.27
2023-03-28T21:45:27.985Z,98179.05
2023-03-28T21:47:59.253Z,98184.48
2023-03-28T21:50:31.708Z,98183.29
2023-03-28T21:53:02.659Z,98176.70
2023-03-28T21:55:33.260Z,98184.08
2023-03-28T21:58:01.979Z,98187.48
2023-03-28T22:00:38.728Z,98199.68
2023-03-28T22:03:07.362Z,98203.60
2023-03-28T22:05:43.043Z,98204.30
2023-03-28T22:08:14.964Z,98207.75
2023-03-28T22:10:47.396Z,98208.50
2023-03-28T22:13:16.402Z,98207.25
2023-03-28T22:15:45.749Z,98210.02
2023-03-28T22:18:15.967Z,98212.56
2023-03-28T22:20:53.435Z,98223.80
2023-03-28T22:23:23.561Z,98226.02
2023-03-28T22:25:53.173Z,98224.18
2023-03-28T22:28:24.992Z,98231.62
2023-03-28T22:30:53.926Z,98229.23
2023-03-28T22:33:26.266Z,98237.98
2023-03-28T22:35:54.772Z,98239.08
2023-03-28T22:38:23.350Z,98241.60
2023-03-28T22:40:52.247Z,98241.52
2023-03-28T22:43:21.011Z,98257.41
2023-03-28T22:45:51.233Z,98258.22
2023-03-28T22:48:20.564Z,98263.95
2023-03-28T22:50:50.563Z,98256.72
2023-03-28T22:53:22.927Z,98261.02
2023-03-28T22:55:52.127Z,98269.41
2023-03-28T22:58:22.485Z,98272.10
2023-03-28T23:00:51.339Z,98268.30
2023-03-28T23:03:19.823Z,98267.86
2023-03-28T23:05:51.946Z,98265.77
2023-03-28T23:08:21.290Z,98270.57
2023-03-28T23:10:49.571Z,98273.30
2023-03-28T23:13:18.563Z,98269.64
2023-03-28T23:15:47.451Z,98276.23
2023-03-28T23:18:20.954Z,98275.13
2023-03-28T23:20:51.128Z,98288.16
2023-03-28T23:23:19.656Z,98292.64
2023-03-28T23:25:52.576Z,98297.85
2023-03-28T23:28:21.644Z,98301.25
2023-03-28T23:30:55.957Z,98303.92
2023-03-28T23:33:24.438Z,98304.00
2023-03-28T23:35:53.080Z,98308.88
2023-03-28T23:38:23.248Z,98308.91
2023-03-28T23:40:51.930Z,98306.59
2023-03-28T23:43:29.949Z,98312.36
2023-03-28T23:45:58.584Z,98312.58
2023-03-28T23:48:27.732Z,98321.85
2023-03-28T23:50:56.512Z,98318.80
2023-03-28T23:53:25.405Z,98321.95
2023-03-28T23:55:59.209Z,98321.29
2023-03-28T23:58:27.896Z,98318.75
